sensor_id;sensor_type;location;lat;lon;timestamp;pressure;altitude;pressure_sealevel;temperature;humidity
38786;BME280;24535;45.508;12.252;2023-03-22T00:00:50;101527.78;;;16.13;59.53
38786;BME280;24535;45.508;12.252;2023-03-22T00:03:16;101527.78;;;16.13;59.60
38786;BME280;24535;45.508;12.252;2023-03-22T00:05:42;101526.19;;;16.10;59.80
38786;BME280;24535;45.508;12.252;2023-03-22T00:08:08;101531.38;;;16.12;59.82
38786;BME280;24535;45.508;12.252;2023-03-22T00:10:36;101534.03;;;16.12;59.43
38786;BME280;24535;45.508;12.252;2023-03-22T00:13:06;101535.97;;;16.10;59.29
38786;BME280;24535;45.508;12.252;2023-03-22T00:15:32;101538.63;;;16.10;59.63
38786;BME280;24535;45.508;12.252;2023-03-22T00:17:57;101526.91;;;16.12;60.33
38786;BME280;24535;45.508;12.252;2023-03-22T00:20:24;101526.06;;;16.12;59.90
38786;BME280;24535;45.508;12.252;2023-03-22T00:22:50;101526.06;;;16.12;59.96
38786;BME280;24535;45.508;12.252;2023-03-22T00:25:16;101533.94;;;16.13;60.06
38786;BME280;24535;45.508;12.252;2023-03-22T00:27:42;101538.16;;;16.16;60.18
38786;BME280;24535;45.508;12.252;2023-03-22T00:30:11;101527.78;;;16.13;59.80
38786;BME280;24535;45.508;12.252;2023-03-22T00:32:37;101520.50;;;16.15;59.78
38786;BME280;24535;45.508;12.252;2023-03-22T00:35:04;101522.56;;;16.11;59.59
38786;BME280;24535;45.508;12.252;2023-03-22T00:37:30;101514.50;;;16.13;59.89
38786;BME280;24535;45.508;12.252;2023-03-22T00:39:59;101516.41;;;16.11;59.93
38786;BME280;24535;45.508;12.252;2023-03-22T00:42:25;101514.50;;;16.13;59.71
38786;BME280;24535;45.508;12.252;2023-03-22T00:44:51;101510.84;;;16.14;59.90
38786;BME280;24535;45.508;12.252;2023-03-22T00:47:17;101507.97;;;16.17;59.47
38786;BME280;24535;45.508;12.252;2023-03-22T00:49:42;101513.16;;;16.18;60.19
38786;BME280;24535;45.508;12.252;2023-03-22T00:52:08;101504.34;;;16.18;60.31
38786;BME280;24535;45.508;12.252;2023-03-22T00:54:33;101499.63;;;16.21;59.69
38786;BME280;24535;45.508;12.252;2023-03-22T00:56:59;101503.13;;;16.22;59.74
38786;BME280;24535;45.508;12.252;2023-03-22T00:59:24;101504.81;;;16.23;59.95
38786;BME280;24535;45.508;12.252;2023-03-22T01:01:50;101504.81;;;16.23;60.42
38786;BME280;24535;45.508;12.252;2023-03-22T01:04:16;101497.81;;;16.22;59.98
38786;BME280;24535;45.508;12.252;2023-03-22T01:06:43;101495.88;;;16.24;60.35
38786;BME280;24535;45.508;12.252;2023-03-22T01:09:09;101491.28;;;16.26;60.15
38786;BME280;24535;45.508;12.252;2023-03-22T01:11:41;101490.31;;;16.27;59.99
38786;BME280;24535;45.508;12.252;2023-03-22T01:14:07;101485.84;;;16.27;60.48
38786;BME280;24535;45.508;12.252;2023-03-22T01:16:35;101486.56;;;16.29;59.78
38786;BME280;24535;45.508;12.252;2023-03-22T01:19:01;101490.91;;;16.30;59.99
38786;BME280;24535;45.508;12.252;2023-03-22T01:21:26;101487.41;;;16.30;59.88
38786;BME280;24535;45.508;12.252;2023-03-22T01:23:52;101483.78;;;16.31;60.27
38786;BME280;24535;45.508;12.252;2023-03-22T01:26:17;101483.78;;;16.31;60.18
38786;BME280;24535;45.508;12.252;2023-03-22T01:28:43;101486.44;;;16.31;59.86
38786;BME280;24535;45.508;12.252;2023-03-22T01:31:08;101479.44;;;16.30;59.80
38786;BME280;24535;45.508;12.252;2023-03-22T01:33:34;101481.97;;;16.31;60.25
38786;BME280;24535;45.508;12.252;2023-03-22T01:36:01;101488.25;;;16.30;60.17
38786;BME280;24535;45.508;12.252;2023-03-22T01:38:27;101478.59;;;16.29;59.75
38786;BME280;24535;45.508;12.252;2023-03-22T01:40:52;101489.09;;;16.31;59.68
38786;BME280;24535;45.508;12.252;2023-03-22T01:43:18;101483.78;;;16.31;60.01
38786;BME280;24535;45.508;12.252;2023-03-22T01:45:53;101476.66;;;16.31;59.97
38786;BME280;24535;45.508;12.252;2023-03-22T01:51:11;101482.19;;;16.28;60.00
38786;BME280;24535;45.508;12.252;2023-03-22T01:53:43;101480.50;;;16.27;59.87
38786;BME280;24535;45.508;12.252;2023-03-22T01:56:11;101474.50;;;16.25;59.57
38786;BME280;24535;45.508;12.252;2023-03-22T01:58:37;101477.38;;;16.22;59.69
38786;BME280;24535;45.508;12.252;2023-03-22T02:01:06;101481.13;;;16.20;59.78
38786;BME280;24535;45.508;12.252;2023-03-22T02:06:27;101483.31;;;16.15;59.64
38786;BME280;24535;45.508;12.252;2023-03-22T02:08:54;101480.88;;;16.12;59.83
38786;BME280;24535;45.508;12.252;2023-03-22T02:11:28;101475.69;;;16.10;59.84
38786;BME280;24535;45.508;12.252;2023-03-22T02:22:41;101476.41;;;16.01;59.52
38786;BME280;24535;45.508;12.252;2023-03-22T02:25:32;101474.97;;;15.97;60.30
38786;BME280;24535;45.508;12.252;2023-03-22T02:31:23;101474.34;;;15.93;59.96
38786;BME280;24535;45.508;12.252;2023-03-22T02:47:53;101477.47;;;15.87;59.92
38786;BME280;24535;45.508;12.252;2023-03-22T02:50:24;101477.59;;;15.86;60.16
38786;BME280;24535;45.508;12.252;2023-03-22T02:53:31;101471.31;;;15.87;60.21
38786;BME280;24535;45.508;12.252;2023-03-22T02:56:09;101469.50;;;15.87;60.51
38786;BME280;24535;45.508;12.252;2023-03-22T02:58:43;101469.41;;;15.89;60.67
38786;BME280;24535;45.508;12.252;2023-03-22T03:01:26;101476.41;;;15.90;60.44
38786;BME280;24535;45.508;12.252;2023-03-22T03:03:57;101474.59;;;15.90;60.28
38786;BME280;24535;45.508;12.252;2023-03-22T03:06:27;101472.75;;;15.91;60.13
38786;BME280;24535;45.508;12.252;2023-03-22T03:08:56;101468.28;;;15.91;59.77
38786;BME280;24535;45.508;12.252;2023-03-22T03:11:26;101470.94;;;15.91;59.98
38786;BME280;24535;45.508;12.252;2023-03-22T03:13:52;101472.66;;;15.92;59.98
38786;BME280;24535;45.508;12.252;2023-03-22T03:16:24;101475.31;;;15.92;60.27
38786;BME280;24535;45.508;12.252;2023-03-22T03:18:56;101475.31;;;15.92;60.06
38786;BME280;24535;45.508;12.252;2023-03-22T03:24:44;101473.59;;;15.91;60.14
38786;BME280;24535;45.508;12.252;2023-03-22T03:29:51;101478.22;;;15.89;59.92
38786;BME280;24535;45.508;12.252;2023-03-22T03:32:31;101481.72;;;15.90;60.03
38786;BME280;24535;45.508;12.252;2023-03-22T03:35:32;101480.03;;;15.89;60.60
38786;BME280;24535;45.508;12.252;2023-03-22T03:38:31;101480.97;;;15.88;60.17
38786;BME280;24535;45.508;12.252;2023-03-22T03:41:02;101482.78;;;15.87;60.40
38786;BME280;24535;45.508;12.252;2023-03-22T03:43:30;101481.84;;;15.88;59.95
38786;BME280;24535;45.508;12.252;2023-03-22T03:45:56;101480.03;;;15.89;60.41
38786;BME280;24535;45.508;12.252;2023-03-22T03:48:25;101477.47;;;15.87;59.96
38786;BME280;24535;45.508;12.252;2023-03-22T03:50:53;101490.66;;;15.89;59.66
38786;BME280;24535;45.508;12.252;2023-03-22T03:53:20;101490.03;;;15.85;59.59
38786;BME280;24535;45.508;12.252;2023-03-22T03:55:46;101484.72;;;15.85;59.59
38786;BME280;24535;45.508;12.252;2023-03-22T03:58:12;101491.13;;;15.82;60.07
38786;BME280;24535;45.508;12.252;2023-03-22T04:00:38;101485.31;;;15.77;59.90
38786;BME280;24535;45.508;12.252;2023-03-22T04:03:04;101486.16;;;15.78;59.87
38786;BME280;24535;45.508;12.252;2023-03-22T04:05:30;101483.72;;;15.75;60.02
38786;BME280;24535;45.508;12.252;2023-03-22T04:07:56;101491.69;;;15.75;60.18
38786;BME280;24535;45.508;12.252;2023-03-22T04:10:22;101481.19;;;15.73;59.89
38786;BME280;24535;45.508;12.252;2023-03-22T04:12:47;101483.00;;;15.73;59.79
38786;BME280;24535;45.508;12.252;2023-03-22T04:15:13;101478.69;;;15.72;59.80
38786;BME280;24535;45.508;12.252;2023-03-22T04:17:39;101481.34;;;15.72;59.70
38786;BME280;24535;45.508;12.252;2023-03-22T04:20:05;101482.41;;;15.69;59.86
38786;BME280;24535;45.508;12.252;2023-03-22T04:22:32;101497.50;;;15.69;59.92
38786;BME280;24535;45.508;12.252;2023-03-22T04:25:05;101492.28;;;15.67;60.11
38786;BME280;24535;45.508;12.252;2023-03-22T04:27:36;101493.44;;;15.63;59.66
38786;BME280;24535;45.508;12.252;2023-03-22T04:30:03;101497.81;;;15.64;60.17
38786;BME280;24535;45.508;12.252;2023-03-22T04:32:29;101500.69;;;15.61;59.92
38786;BME280;24535;45.508;12.252;2023-03-22T04:34:54;101495.63;;;15.58;60.15
38786;BME280;24535;45.508;12.252;2023-03-22T04:37:20;101497.44;;;15.57;60.07
38786;BME280;24535;45.508;12.252;2023-03-22T04:39:51;101493.19;;;15.55;60.04
38786;BME280;24535;45.508;12.252;2023-03-22T04:42:17;101495.00;;;15.54;59.91
38786;BME280;24535;45.508;12.252;2023-03-22T04:44:42;101488.00;;;15.53;59.70
38786;BME280;24535;45.508;12.252;2023-03-22T04:47:08;101493.44;;;15.52;60.25
38786;BME280;24535;45.508;12.252;2023-03-22T04:49:34;101483.75;;;15.51;59.80
38786;BME280;24535;45.508;12.252;2023-03-22T04:51:59;101488.44;;;15.47;59.71
38786;BME280;24535;45.508;12.252;2023-03-22T04:54:25;101488.69;;;15.44;60.01
38786;BME280;24535;45.508;12.252;2023-03-22T04:56:50;101493.03;;;15.45;60.22
38786;BME280;24535;45.508;12.252;2023-03-22T04:59:16;101488.78;;;15.43;60.58
38786;BME280;24535;45.508;12.252;2023-03-22T05:01:45;101488.78;;;15.43;60.44
38786;BME280;24535;45.508;12.252;2023-03-22T05:04:11;101488.94;;;15.41;60.40
38786;BME280;24535;45.508;12.252;2023-03-22T05:06:36;101495.06;;;15.42;60.29
38786;BME280;24535;45.508;12.252;2023-03-22T05:09:02;101496.28;;;15.38;60.51
38786;BME280;24535;45.508;12.252;2023-03-22T05:11:28;101493.22;;;15.31;60.29
38786;BME280;24535;45.508;12.252;2023-03-22T05:13:54;101500.59;;;15.27;59.82
38786;BME280;24535;45.508;12.252;2023-03-22T05:16:19;101494.75;;;15.22;59.79
38786;BME280;24535;45.508;12.252;2023-03-22T05:18:45;101494.38;;;15.16;60.06
38786;BME280;24535;45.508;12.252;2023-03-22T05:21:17;101496.50;;;15.11;60.21
38786;BME280;24535;45.508;12.252;2023-03-22T05:23:46;101497.59;;;15.08;60.28
38786;BME280;24535;45.508;12.252;2023-03-22T05:26:12;101493.47;;;15.04;60.63
38786;BME280;24535;45.508;12.252;2023-03-22T05:28:45;101498.16;;;15.00;60.96
38786;BME280;24535;45.508;12.252;2023-03-22T05:31:10;101512.25;;;15.01;61.00
38786;BME280;24535;45.508;12.252;2023-03-22T05:33:39;101507.19;;;14.98;60.66
38786;BME280;24535;45.508;12.252;2023-03-22T05:36:06;101510.78;;;14.97;60.88
38786;BME280;24535;45.508;12.252;2023-03-22T05:38:32;101511.84;;;14.94;60.97
38786;BME280;24535;45.508;12.252;2023-03-22T05:40:58;101511.00;;;14.94;60.76
38786;BME280;24535;45.508;12.252;2023-03-22T05:43:23;101510.28;;;14.92;61.07
38786;BME280;24535;45.508;12.252;2023-03-22T05:45:49;101516.31;;;14.94;60.80
38786;BME280;24535;45.508;12.252;2023-03-22T05:48:15;101513.78;;;14.92;61.50
38786;BME280;24535;45.508;12.252;2023-03-22T05:50:41;101514.50;;;14.94;61.50
38786;BME280;24535;45.508;12.252;2023-03-22T05:53:07;101517.91;;;14.96;61.19
38786;BME280;24535;45.508;12.252;2023-03-22T05:55:32;101516.94;;;14.97;61.67
38786;BME280;24535;45.508;12.252;2023-03-22T05:57:59;101521.28;;;14.98;61.63
38786;BME280;24535;45.508;12.252;2023-03-22T06:00:26;101529.03;;;15.01;61.52
38786;BME280;24535;45.508;12.252;2023-03-22T06:02:56;101521.06;;;15.01;61.96
38786;BME280;24535;45.508;12.252;2023-03-22T06:05:28;101519.78;;;15.07;62.17
38786;BME280;24535;45.508;12.252;2023-03-22T06:07:55;101527.41;;;15.12;62.30
38786;BME280;24535;45.508;12.252;2023-03-22T06:10:23;101533.00;;;15.20;62.01
38786;BME280;24535;45.508;12.252;2023-03-22T06:12:51;101536.66;;;15.30;62.68
38786;BME280;24535;45.508;12.252;2023-03-22T06:15:17;101539.16;;;15.44;62.41
38786;BME280;24535;45.508;12.252;2023-03-22T06:17:42;101535.66;;;15.55;61.62
38786;BME280;24535;45.508;12.252;2023-03-22T06:20:09;101537.75;;;15.63;61.17
38786;BME280;24535;45.508;12.252;2023-03-22T06:22:37;101548.06;;;15.67;61.25
38786;BME280;24535;45.508;12.252;2023-03-22T06:25:03;101547.00;;;15.70;61.24
38786;BME280;24535;45.508;12.252;2023-03-22T06:27:29;101541.47;;;15.73;61.24
38786;BME280;24535;45.508;12.252;2023-03-22T06:29:54;101543.16;;;15.74;61.18
38786;BME280;24535;45.508;12.252;2023-03-22T06:32:22;101541.09;;;15.77;60.92
38786;BME280;24535;45.508;12.252;2023-03-22T06:34:49;101542.56;;;15.81;61.03
38786;BME280;24535;45.508;12.252;2023-03-22T06:37:15;101546.56;;;15.87;61.00
38786;BME280;24535;45.508;12.252;2023-03-22T06:39:41;101545.34;;;15.91;61.22
38786;BME280;24535;45.508;12.252;2023-03-22T06:42:07;101543.31;;;15.95;61.06
38786;BME280;24535;45.508;12.252;2023-03-22T06:44:32;101543.69;;;16.01;60.69
38786;BME280;24535;45.508;12.252;2023-03-22T06:46:58;101547.91;;;16.04;61.17
38786;BME280;24535;45.508;12.252;2023-03-22T06:49:23;101552.66;;;16.12;60.64
38786;BME280;24535;45.508;12.252;2023-03-22T06:51:49;101552.53;;;16.13;60.91
38786;BME280;24535;45.508;12.252;2023-03-22T06:54:14;101547.72;;;16.18;61.27
38786;BME280;24535;45.508;12.252;2023-03-22T06:56:41;101553.63;;;16.22;60.62
38786;BME280;24535;45.508;12.252;2023-03-22T06:59:06;101556.78;;;16.27;61.02
38786;BME280;24535;45.508;12.252;2023-03-22T07:01:32;101550.13;;;16.32;61.03
38786;BME280;24535;45.508;12.252;2023-03-22T07:03:57;101554.50;;;16.45;61.03
38786;BME280;24535;45.508;12.252;2023-03-22T07:06:23;101550.53;;;16.62;61.12
38786;BME280;24535;45.508;12.252;2023-03-22T07:08:49;101542.19;;;16.77;60.66
38786;BME280;24535;45.508;12.252;2023-03-22T07:11:14;101545.41;;;16.92;61.11
38786;BME280;24535;45.508;12.252;2023-03-22T07:13:40;101548.06;;;17.03;60.29
38786;BME280;24535;45.508;12.252;2023-03-22T07:16:06;101544.91;;;17.10;60.25
38786;BME280;24535;45.508;12.252;2023-03-22T07:18:32;101554.91;;;17.17;60.36
38786;BME280;24535;45.508;12.252;2023-03-22T07:20:57;101549.69;;;17.27;59.98
38786;BME280;24535;45.508;12.252;2023-03-22T07:23:22;101554.72;;;17.41;59.63
38786;BME280;24535;45.508;12.252;2023-03-22T07:25:48;101556.25;;;17.55;59.93
38786;BME280;24535;45.508;12.252;2023-03-22T07:28:14;101562.50;;;17.65;58.84
38786;BME280;24535;45.508;12.252;2023-03-22T07:30:40;101557.75;;;17.69;58.60
38786;BME280;24535;45.508;12.252;2023-03-22T07:33:07;101562.09;;;17.70;58.22
38786;BME280;24535;45.508;12.252;2023-03-22T07:35:34;101570.69;;;17.73;58.13
38786;BME280;24535;45.508;12.252;2023-03-22T07:38:01;101571.47;;;17.75;57.98
38786;BME280;24535;45.508;12.252;2023-03-22T07:40:28;101572.31;;;17.76;58.07
38786;BME280;24535;45.508;12.252;2023-03-22T07:42:54;101578.34;;;17.78;58.87
38786;BME280;24535;45.508;12.252;2023-03-22T07:45:20;101590.44;;;17.82;58.14
38786;BME280;24535;45.508;12.252;2023-03-22T07:47:46;101588.25;;;17.87;57.65
38786;BME280;24535;45.508;12.252;2023-03-22T07:50:12;101591.34;;;17.92;57.95
38786;BME280;24535;45.508;12.252;2023-03-22T07:52:41;101583.81;;;17.97;57.52
38786;BME280;24535;45.508;12.252;2023-03-22T07:55:08;101586.94;;;18.02;56.11
38786;BME280;24535;45.508;12.252;2023-03-22T07:57:35;101584.44;;;18.11;58.20
38786;BME280;24535;45.508;12.252;2023-03-22T08:00:02;101582.84;;;18.19;57.60
38786;BME280;24535;45.508;12.252;2023-03-22T08:02:29;101589.06;;;18.29;57.99
38786;BME280;24535;45.508;12.252;2023-03-22T08:04:55;101595.19;;;18.41;57.72
38786;BME280;24535;45.508;12.252;2023-03-22T08:07:20;101582.44;;;18.54;57.62
38786;BME280;24535;45.508;12.252;2023-03-22T08:09:46;101586.03;;;18.65;56.80
38786;BME280;24535;45.508;12.252;2023-03-22T08:12:12;101587.91;;;18.74;56.98
38786;BME280;24535;45.508;12.252;2023-03-22T08:14:37;101582.47;;;18.85;57.07
38786;BME280;24535;45.508;12.252;2023-03-22T08:17:04;101591.91;;;18.99;57.92
38786;BME280;24535;45.508;12.252;2023-03-22T08:19:30;101590.72;;;19.13;57.54
38786;BME280;24535;45.508;12.252;2023-03-22T08:21:57;101594.94;;;19.25;58.14
38786;BME280;24535;45.508;12.252;2023-03-22T08:24:24;101595.09;;;19.43;58.21
38786;BME280;24535;45.508;12.252;2023-03-22T08:26:50;101591.88;;;19.59;58.14
38786;BME280;24535;45.508;12.252;2023-03-22T08:29:16;101597.00;;;19.81;58.12
38786;BME280;24535;45.508;12.252;2023-03-22T08:31:43;101598.50;;;20.03;57.98
38786;BME280;24535;45.508;12.252;2023-03-22T08:34:09;101602.41;;;20.28;57.14
38786;BME280;24535;45.508;12.252;2023-03-22T08:36:36;101600.50;;;20.58;56.63
38786;BME280;24535;45.508;12.252;2023-03-22T08:39:02;101600.53;;;20.85;55.83
38786;BME280;24535;45.508;12.252;2023-03-22T08:41:28;101603.19;;;21.13;55.23
38786;BME280;24535;45.508;12.252;2023-03-22T08:43:53;101598.97;;;21.38;54.43
38786;BME280;24535;45.508;12.252;2023-03-22T08:46:19;101601.06;;;21.62;53.75
38786;BME280;24535;45.508;12.252;2023-03-22T08:48:44;101608.94;;;21.81;53.11
38786;BME280;24535;45.508;12.252;2023-03-22T08:51:19;101602.72;;;21.98;51.60
38786;BME280;24535;45.508;12.252;2023-03-22T08:53:48;101602.72;;;22.16;50.91
38786;BME280;24535;45.508;12.252;2023-03-22T08:56:14;101603.63;;;22.25;51.39
38786;BME280;24535;45.508;12.252;2023-03-22T08:58:44;101607.03;;;22.35;50.10
38786;BME280;24535;45.508;12.252;2023-03-22T09:01:14;101605.09;;;22.45;49.57
38786;BME280;24535;45.508;12.252;2023-03-22T09:03:41;101611.81;;;22.50;50.16
38786;BME280;24535;45.508;12.252;2023-03-22T09:06:07;101612.19;;;22.55;49.81
38786;BME280;24535;45.508;12.252;2023-03-22T09:08:32;101611.56;;;22.61;49.28
38786;BME280;24535;45.508;12.252;2023-03-22T09:10:58;101615.59;;;22.65;49.26
38786;BME280;24535;45.508;12.252;2023-03-22T09:13:24;101615.59;;;22.65;48.96
38786;BME280;24535;45.508;12.252;2023-03-22T09:15:50;101615.44;;;22.66;48.90
38786;BME280;24535;45.508;12.252;2023-03-22T09:18:16;101612.56;;;22.68;48.45
38786;BME280;24535;45.508;12.252;2023-03-22T09:20:43;101617.59;;;22.63;48.24
38786;BME280;24535;45.508;12.252;2023-03-22T09:23:10;101606.63;;;22.56;48.18
38786;BME280;24535;45.508;12.252;2023-03-22T09:25:35;101607.94;;;22.52;48.60
38786;BME280;24535;45.508;12.252;2023-03-22T09:28:01;101596.38;;;22.52;48.76
38786;BME280;24535;45.508;12.252;2023-03-22T09:30:28;101598.22;;;22.51;48.92
38786;BME280;24535;45.508;12.252;2023-03-22T09:32:54;101594.38;;;22.54;48.48
38786;BME280;24535;45.508;12.252;2023-03-22T09:35:19;101591.03;;;22.60;48.09
38786;BME280;24535;45.508;12.252;2023-03-22T09:37:45;101585.34;;;22.63;47.72
38786;BME280;24535;45.508;12.252;2023-03-22T09:40:12;101588.56;;;22.66;47.51
38786;BME280;24535;45.508;12.252;2023-03-22T09:42:49;101579.66;;;22.66;46.59
38786;BME280;24535;45.508;12.252;2023-03-22T09:45:21;101577.47;;;22.61;47.12
38786;BME280;24535;45.508;12.252;2023-03-22T09:47:53;101575.72;;;22.52;47.21
38786;BME280;24535;45.508;12.252;2023-03-22T09:50:25;101580.06;;;22.45;47.51
38786;BME280;24535;45.508;12.252;2023-03-22T09:52:52;101574.84;;;22.43;47.88
38786;BME280;24535;45.508;12.252;2023-03-22T09:55:21;101575.00;;;22.42;47.89
38786;BME280;24535;45.508;12.252;2023-03-22T09:58:18;101581.41;;;22.41;46.40
38786;BME280;24535;45.508;12.252;2023-03-22T10:00:49;101582.59;;;22.46;48.22
38786;BME280;24535;45.508;12.252;2023-03-22T10:06:08;101581.56;;;22.48;48.02
38786;BME280;24535;45.508;12.252;2023-03-22T10:08:43;101578.59;;;22.51;47.42
38786;BME280;24535;45.508;12.252;2023-03-22T10:16:31;101567.50;;;22.45;46.16
38786;BME280;24535;45.508;12.252;2023-03-22T10:19:15;101564.06;;;22.35;45.99
38786;BME280;24535;45.508;12.252;2023-03-22T10:21:46;101566.03;;;22.25;46.58
38786;BME280;24535;45.508;12.252;2023-03-22T10:24:17;101567.97;;;22.15;46.83
38786;BME280;24535;45.508;12.252;2023-03-22T10:26:46;101573.59;;;22.12;46.67
38786;BME280;24535;45.508;12.252;2023-03-22T10:29:24;101571.88;;;22.03;46.56
38786;BME280;24535;45.508;12.252;2023-03-22T10:31:54;101572.13;;;21.91;47.25
38786;BME280;24535;45.508;12.252;2023-03-22T10:34:25;101560.50;;;21.83;46.78
38786;BME280;24535;45.508;12.252;2023-03-22T10:37:00;101559.75;;;21.72;47.00
38786;BME280;24535;45.508;12.252;2023-03-22T10:42:02;101558.38;;;21.51;47.23
38786;BME280;24535;45.508;12.252;2023-03-22T10:44:32;101567.66;;;21.38;47.60
38786;BME280;24535;45.508;12.252;2023-03-22T10:47:02;101573.50;;;21.24;47.47
38786;BME280;24535;45.508;12.252;2023-03-22T10:49:37;101569.06;;;21.15;47.29
38786;BME280;24535;45.508;12.252;2023-03-22T10:52:33;101566.91;;;21.01;47.37
38786;BME280;24535;45.508;12.252;2023-03-22T10:54:57;101569.09;;;20.87;47.55
38786;BME280;24535;45.508;12.252;2023-03-22T10:57:23;101559.13;;;20.80;47.68
38786;BME280;24535;45.508;12.252;2023-03-22T10:59:51;101563.09;;;20.76;47.52
38786;BME280;24535;45.508;12.252;2023-03-22T11:02:25;101556.47;;;20.70;47.56
38786;BME280;24535;45.508;12.252;2023-03-22T11:05:03;101558.75;;;20.65;47.84
38786;BME280;24535;45.508;12.252;2023-03-22T11:07:34;101557.81;;;20.56;48.15
38786;BME280;24535;45.508;12.252;2023-03-22T11:12:32;101549.59;;;20.30;48.49
38786;BME280;24535;45.508;12.252;2023-03-22T11:14:58;101546.47;;;20.25;48.03
38786;BME280;24535;45.508;12.252;2023-03-22T11:17:24;101552.56;;;20.17;47.81
38786;BME280;24535;45.508;12.252;2023-03-22T11:20:04;101542.16;;;20.14;48.38
38786;BME280;24535;45.508;12.252;2023-03-22T11:22:45;101543.13;;;20.13;48.53
38786;BME280;24535;45.508;12.252;2023-03-22T11:25:24;101549.47;;;20.12;48.62
38786;BME280;24535;45.508;12.252;2023-03-22T11:28:08;101546.97;;;20.11;48.50
38786;BME280;24535;45.508;12.252;2023-03-22T11:30:38;101546.97;;;20.11;48.38
38786;BME280;24535;45.508;12.252;2023-03-22T11:35:35;101541.16;;;20.15;48.05
38786;BME280;24535;45.508;12.252;2023-03-22T11:38:01;101535.97;;;20.14;48.29
38786;BME280;24535;45.508;12.252;2023-03-22T11:40:28;101533.59;;;20.11;48.51
38786;BME280;24535;45.508;12.252;2023-03-22T11:43:02;101528.50;;;20.08;48.02
38786;BME280;24535;45.508;12.252;2023-03-22T11:45:39;101527.22;;;20.12;48.16
38786;BME280;24535;45.508;12.252;2023-03-22T11:48:08;101518.66;;;20.08;48.25
38786;BME280;24535;45.508;12.252;2023-03-22T11:50:38;101519.94;;;20.04;48.50
38786;BME280;24535;45.508;12.252;2023-03-22T11:53:06;101520.22;;;20.01;48.70
38786;BME280;24535;45.508;12.252;2023-03-22T11:55:35;101517.28;;;19.94;48.72
38786;BME280;24535;45.508;12.252;2023-03-22T11:58:02;101514.22;;;19.89;49.04
38786;BME280;24535;45.508;12.252;2023-03-22T12:00:30;101511.66;;;19.88;49.06
38786;BME280;24535;45.508;12.252;2023-03-22T12:03:00;101506.47;;;19.86;49.28
38786;BME280;24535;45.508;12.252;2023-03-22T12:05:30;101498.56;;;19.85;49.27
38786;BME280;24535;45.508;12.252;2023-03-22T12:08:08;101502.13;;;19.85;49.33
38786;BME280;24535;45.508;12.252;2023-03-22T12:10:41;101495.38;;;19.81;49.15
38786;BME280;24535;45.508;12.252;2023-03-22T12:13:27;101482.28;;;19.78;49.70
38786;BME280;24535;45.508;12.252;2023-03-22T12:16:01;101488.06;;;19.73;50.06
38786;BME280;24535;45.508;12.252;2023-03-22T12:18:40;101482.84;;;19.72;49.86
38786;BME280;24535;45.508;12.252;2023-03-22T12:21:09;101486.50;;;19.71;50.13
38786;BME280;24535;45.508;12.252;2023-03-22T12:23:36;101480.31;;;19.70;50.15
38786;BME280;24535;45.508;12.252;2023-03-22T12:28:40;101474.16;;;19.70;50.20
38786;BME280;24535;45.508;12.252;2023-03-22T12:31:20;101475.13;;;19.69;50.28
38786;BME280;24535;45.508;12.252;2023-03-22T12:33:51;101471.75;;;19.67;50.27
38786;BME280;24535;45.508;12.252;2023-03-22T12:36:23;101468.25;;;19.66;50.36
38786;BME280;24535;45.508;12.252;2023-03-22T12:39:01;101461.19;;;19.75;50.63
38786;BME280;24535;45.508;12.252;2023-03-22T12:41:36;101457.22;;;19.79;50.13
38786;BME280;24535;45.508;12.252;2023-03-22T12:44:25;101459.75;;;19.81;50.40
38786;BME280;24535;45.508;12.252;2023-03-22T12:47:00;101454.28;;;19.82;50.11
38786;BME280;24535;45.508;12.252;2023-03-22T12:49:31;101454.41;;;19.81;50.31
38786;BME280;24535;45.508;12.252;2023-03-22T12:52:14;101456.22;;;19.80;50.45
38786;BME280;24535;45.508;12.252;2023-03-22T12:54:42;101452.03;;;19.78;50.03
38786;BME280;24535;45.508;12.252;2023-03-22T12:57:08;101460.19;;;19.76;50.21
38786;BME280;24535;45.508;12.252;2023-03-22T12:59:35;101442.91;;;19.70;50.13
38786;BME280;24535;45.508;12.252;2023-03-22T13:02:14;101453.44;;;19.72;50.70
38786;BME280;24535;45.508;12.252;2023-03-22T13:17:42;101441.09;;;19.61;50.19
38786;BME280;24535;45.508;12.252;2023-03-22T13:30:26;101431.50;;;19.59;50.10
38786;BME280;24535;45.508;12.252;2023-03-22T13:33:00;101428.66;;;19.60;50.10
38786;BME280;24535;45.508;12.252;2023-03-22T13:35:43;101421.53;;;19.61;49.76
38786;BME280;24535;45.508;12.252;2023-03-22T13:38:31;101419.56;;;19.63;49.89
38786;BME280;24535;45.508;12.252;2023-03-22T13:43:43;101430.50;;;19.60;49.86
38786;BME280;24535;45.508;12.252;2023-03-22T13:51:21;101425.75;;;19.54;49.88
38786;BME280;24535;45.508;12.252;2023-03-22T13:56:54;101421.81;;;19.58;49.74
38786;BME280;24535;45.508;12.252;2023-03-22T14:02:14;101419.56;;;19.63;49.79
38786;BME280;24535;45.508;12.252;2023-03-22T14:04:46;101424.91;;;19.63;49.74
38786;BME280;24535;45.508;12.252;2023-03-22T14:07:39;101421.78;;;19.67;49.94
38786;BME280;24535;45.508;12.252;2023-03-22T14:12:56;101420.97;;;19.67;49.73
38786;BME280;24535;45.508;12.252;2023-03-22T14:15:30;101409.56;;;19.65;49.93
38786;BME280;24535;45.508;12.252;2023-03-22T14:17:59;101415.88;;;19.64;49.68
38786;BME280;24535;45.508;12.252;2023-03-22T14:20:31;101413.09;;;19.65;50.12
38786;BME280;24535;45.508;12.252;2023-03-22T14:23:02;101404.22;;;19.65;50.27
38786;BME280;24535;45.508;12.252;2023-03-22T14:25:31;101403.69;;;19.61;49.61